KBGM

Greater Binghamton / Edwin A Link Field Airport

Binghamton, New York, USA
METAR KBGM 181453Z 24007KT 10SM CLR M12/M16 A2998 RMK AO2 SLP188 T11221161 53006
Observed Flight Rules
Jan-18 @ 14:53 UTC (53 minutes ago) Visual Flight Rules
Wind Visibility Clouds
240° at 7 knots 10 miles
  • Clear skies
Temperatures Readings
Current -12°C / 10°F
Dewpoint -16°C / 3°F
Humidity 72%
Altimeter 29.98" Hg
Pressure 1018.8 hPa
Elevation 490
METAR KBGM 181453Z 24007KT 10SM CLR M12/M16 A2998 RMK AO2 SLP188 T11221161 53006
Observed Flight Rules
Jan-18 @ 14:53 UTC
(53 minutes ago)
VFR
Wind Visibility
240° at 7 knots 10 miles
Clouds
  • Clear skies
Temperature Dewpoint
-12°C / 10°F -16°C / 3°F
Humidity Altimeter Pressure
72% 29.98" Hg 1018.8 hPa